createdAt,value
2023-01-10T00:02:22.920Z,5.20
2023-01-10T00:04:50.226Z,5.10
2023-01-10T00:07:17.727Z,5.20
2023-01-10T00:09:44.825Z,5.10
2023-01-10T00:12:30.383Z,5.20
2023-01-10T00:14:57.674Z,5.10
2023-01-10T00:17:24.768Z,5.00
2023-01-10T00:19:52.045Z,5.10
2023-01-10T00:22:22.806Z,5.10
2023-01-10T00:24:50.023Z,5.00
2023-01-10T00:27:22.475Z,5.00
2023-01-10T00:29:53.294Z,5.00
2023-01-10T00:32:21.032Z,5.00
2023-01-10T00:34:48.209Z,5.00
2023-01-10T00:37:15.426Z,4.90
2023-01-10T00:39:42.726Z,4.90
2023-01-10T00:42:30.087Z,4.90
2023-01-10T00:44:57.615Z,4.80
2023-01-10T00:47:24.913Z,4.90
2023-01-10T00:49:52.418Z,4.90
2023-01-10T00:52:19.592Z,4.90
2023-01-10T00:54:46.718Z,4.80
2023-01-10T00:57:14.940Z,4.80
2023-01-10T00:59:42.130Z,4.80
2023-01-10T01:02:09.333Z,4.70
2023-01-10T01:04:36.374Z,4.70
2023-01-10T01:07:03.843Z,4.70
2023-01-10T01:09:31.056Z,4.70
2023-01-10T01:11:58.317Z,4.60
2023-01-10T01:14:25.759Z,4.70
2023-01-10T01:16:52.994Z,4.60
2023-01-10T01:19:20.019Z,4.60
2023-01-10T01:21:46.905Z,4.60
2023-01-10T01:24:13.940Z,4.60
2023-01-10T01:26:42.798Z,4.60
2023-01-10T01:29:09.965Z,4.70
2023-01-10T01:31:37.120Z,4.70
2023-01-10T01:34:04.193Z,4.70
2023-01-10T01:36:31.254Z,4.70
2023-01-10T01:38:58.586Z,4.70
2023-01-10T01:41:44.799Z,4.60
2023-01-10T01:44:17.535Z,4.60
2023-01-10T01:46:52.846Z,4.60
2023-01-10T01:49:23.948Z,4.60
2023-01-10T01:51:57.077Z,4.70
2023-01-10T01:54:24.332Z,4.50
2023-01-10T01:57:13.968Z,4.60
2023-01-10T01:59:44.081Z,4.60
2023-01-10T02:02:22.613Z,4.50
2023-01-10T02:05:22.865Z,4.50
2023-01-10T02:07:54.848Z,4.50
2023-01-10T02:10:54.922Z,4.50
2023-01-10T02:13:25.865Z,4.50
2023-01-10T02:15:53.139Z,4.60
2023-01-10T02:18:21.185Z,4.60
2023-01-10T02:21:00.892Z,4.60
2023-01-10T02:24:08.627Z,4.60
2023-01-10T02:26:54.127Z,4.60
2023-01-10T02:29:43.260Z,4.60
2023-01-10T02:32:43.812Z,4.50
2023-01-10T02:35:43.098Z,4.50
2023-01-10T02:38:51.798Z,4.50
2023-01-10T02:41:23.779Z,4.60
2023-01-10T02:44:30.153Z,4.60
2023-01-10T02:46:57.853Z,4.60
2023-01-10T02:49:25.008Z,4.50
2023-01-10T02:51:52.366Z,4.50
2023-01-10T02:54:25.743Z,4.50
2023-01-10T02:57:22.959Z,4.50
2023-01-10T02:59:59.106Z,4.50
2023-01-10T03:02:45.462Z,4.50
2023-01-10T03:05:23.877Z,4.50
2023-01-10T03:08:18.613Z,4.50
2023-01-10T03:10:59.251Z,4.50
2023-01-10T03:13:41.691Z,4.50
2023-01-10T03:16:17.704Z,4.50
2023-01-10T03:19:00.725Z,4.50
2023-01-10T03:21:30.678Z,4.50
2023-01-10T03:24:03.576Z,4.50
2023-01-10T03:26:41.832Z,4.50
2023-01-10T03:29:12.045Z,4.50
2023-01-10T03:31:48.278Z,4.50
2023-01-10T03:34:15.537Z,4.50
2023-01-10T03:36:52.668Z,4.50
2023-01-10T03:39:34.607Z,4.50
2023-01-10T03:42:23.577Z,4.40
2023-01-10T03:45:06.427Z,4.50
2023-01-10T03:47:39.508Z,4.50
2023-01-10T03:50:15.484Z,4.40
2023-01-10T03:52:44.044Z,4.40
2023-01-10T03:55:13.488Z,4.50
2023-01-10T03:57:45.606Z,4.40
2023-01-10T04:00:14.265Z,4.40
2023-01-10T04:02:41.447Z,4.40
2023-01-10T04:05:09.128Z,4.40
2023-01-10T04:07:36.689Z,4.40
2023-01-10T04:10:08.267Z,4.30
2023-01-10T04:12:35.328Z,4.40
2023-01-10T04:15:02.824Z,4.30
2023-01-10T04:17:29.901Z,4.30
2023-01-10T04:19:57.275Z,4.30
2023-01-10T04:22:24.490Z,4.30
2023-01-10T04:24:52.092Z,4.30
2023-01-10T04:27:20.230Z,4.40
2023-01-10T04:29:47.697Z,4.40
2023-01-10T04:32:15.077Z,4.40
2023-01-10T04:34:42.266Z,4.40
2023-01-10T04:37:09.603Z,4.40
2023-01-10T04:39:36.834Z,4.40
2023-01-10T04:42:03.975Z,4.30
2023-01-10T04:44:31.201Z,4.40
2023-01-10T04:46:58.444Z,4.40
2023-01-10T04:49:25.781Z,4.50
2023-01-10T04:51:53.032Z,4.50
2023-01-10T04:54:23.981Z,4.40
2023-01-10T04:56:51.137Z,4.40
2023-01-10T04:59:18.740Z,4.30
2023-01-10T05:01:45.906Z,4.20
2023-01-10T05:04:13.137Z,4.20
2023-01-10T05:06:40.755Z,4.20
2023-01-10T05:09:09.252Z,4.20
2023-01-10T05:11:36.415Z,4.10
2023-01-10T05:14:03.767Z,4.10
2023-01-10T05:16:30.953Z,4.20
2023-01-10T05:18:58.108Z,4.20
2023-01-10T05:21:25.204Z,4.10
2023-01-10T05:23:52.380Z,4.10
2023-01-10T05:26:21.825Z,4.20
2023-01-10T05:28:49.193Z,4.20
2023-01-10T05:31:18.117Z,4.20
2023-01-10T05:33:49.512Z,4.20
2023-01-10T05:36:17.941Z,4.20
2023-01-10T05:38:45.493Z,4.20
2023-01-10T05:41:12.787Z,4.20
2023-01-10T05:43:40.067Z,4.10
2023-01-10T05:46:07.092Z,4.10
2023-01-10T05:48:34.323Z,4.20
2023-01-10T05:51:01.755Z,4.20
2023-01-10T05:53:29.105Z,4.20
2023-01-10T05:55:59.471Z,4.20
2023-01-10T05:58:27.400Z,4.20
2023-01-10T06:00:56.651Z,4.30
2023-01-10T06:03:25.162Z,4.30
2023-01-10T06:05:52.923Z,4.30
2023-01-10T06:08:21.072Z,4.30
2023-01-10T06:10:48.482Z,4.30
2023-01-10T06:13:15.683Z,4.30
2023-01-10T06:15:44.260Z,4.30
2023-01-10T06:18:12.504Z,4.20
2023-01-10T06:20:41.090Z,4.10
2023-01-10T06:23:08.353Z,4.10
2023-01-10T06:25:40.247Z,4.00
2023-01-10T06:28:12.250Z,4.20
2023-01-10T06:30:42.105Z,4.10
2023-01-10T06:33:11.104Z,4.00
2023-01-10T06:35:40.171Z,4.10
2023-01-10T06:38:07.588Z,4.10
2023-01-10T06:40:34.749Z,4.10
2023-01-10T06:43:01.937Z,4.20
2023-01-10T06:45:29.115Z,4.20
2023-01-10T06:47:56.408Z,4.20
2023-01-10T06:50:23.749Z,4.20
2023-01-10T06:53:01.938Z,4.10
2023-01-10T06:55:29.963Z,4.10
2023-01-10T06:57:58.888Z,4.10
2023-01-10T07:00:27.479Z,4.10
2023-01-10T07:02:56.401Z,4.10
2023-01-10T07:05:23.592Z,4.20
2023-01-10T07:07:50.758Z,4.10
2023-01-10T07:10:17.935Z,4.10
2023-01-10T07:12:45.165Z,4.10
2023-01-10T07:15:12.254Z,4.10
2023-01-10T07:17:39.391Z,4.10
2023-01-10T07:20:06.946Z,4.20
2023-01-10T07:22:33.991Z,4.30
2023-01-10T07:25:01.080Z,4.20
2023-01-10T07:27:32.062Z,4.30
2023-01-10T07:29:59.388Z,4.30
2023-01-10T07:32:26.740Z,4.30
2023-01-10T07:34:54.318Z,4.20
2023-01-10T07:37:21.658Z,4.20
2023-01-10T07:39:49.105Z,4.20
2023-01-10T07:42:16.313Z,4.20
2023-01-10T07:44:43.379Z,4.30
2023-01-10T07:47:10.628Z,4.20
2023-01-10T07:49:37.822Z,4.30
2023-01-10T07:52:07.869Z,4.30
2023-01-10T07:54:35.999Z,4.40
2023-01-10T07:57:03.236Z,4.30
2023-01-10T07:59:30.416Z,4.30
2023-01-10T08:01:57.659Z,4.30
2023-01-10T08:04:24.968Z,4.40
2023-01-10T08:06:55.185Z,4.40
2023-01-10T08:09:22.599Z,4.40
2023-01-10T08:11:49.821Z,4.40
2023-01-10T08:14:17.039Z,4.50
2023-01-10T08:16:44.137Z,4.50
2023-01-10T08:19:15.121Z,4.60
2023-01-10T08:21:42.374Z,4.50
2023-01-10T08:24:09.681Z,4.60
2023-01-10T08:26:36.849Z,4.60
2023-01-10T08:29:03.980Z,4.50
2023-01-10T08:31:31.097Z,4.50
2023-01-10T08:33:58.529Z,4.40
2023-01-10T08:36:25.806Z,4.40
2023-01-10T08:38:55.691Z,4.50
2023-01-10T08:41:23.149Z,4.70
2023-01-10T08:43:50.945Z,4.70
2023-01-10T08:46:20.218Z,4.80
2023-01-10T08:48:48.576Z,4.80
2023-01-10T08:51:16.223Z,4.90
2023-01-10T08:53:43.664Z,5.00
2023-01-10T08:56:11.740Z,5.10
2023-01-10T08:58:39.104Z,5.20
2023-01-10T09:01:08.263Z,5.10
2023-01-10T09:03:35.672Z,5.10
2023-01-10T09:06:03.255Z,5.00
2023-01-10T09:08:30.524Z,5.10
2023-01-10T09:11:01.002Z,5.10
2023-01-10T09:13:29.229Z,5.20
2023-01-10T09:15:57.095Z,5.20
2023-01-10T09:18:24.694Z,5.20
2023-01-10T09:20:52.683Z,5.30
2023-01-10T09:23:21.691Z,5.30
2023-01-10T09:25:51.070Z,5.30
2023-01-10T09:28:19.145Z,5.20
2023-01-10T09:30:46.681Z,5.30
2023-01-10T09:33:15.681Z,5.30
2023-01-10T09:35:43.517Z,5.40
2023-01-10T09:38:14.640Z,5.40
2023-01-10T09:41:06.467Z,5.40
2023-01-10T09:43:58.813Z,5.30
2023-01-10T09:46:57.199Z,5.40
2023-01-10T09:49:47.422Z,5.40
2023-01-10T09:52:31.362Z,5.40
2023-01-10T09:55:03.902Z,5.40
2023-01-10T09:57:31.384Z,5.50
2023-01-10T09:59:59.028Z,5.60
2023-01-10T10:02:39.815Z,5.60
2023-01-10T10:05:25.273Z,5.60
2023-01-10T10:08:05.095Z,5.70
2023-01-10T10:10:39.381Z,5.80
2023-01-10T10:13:26.935Z,5.80
2023-01-10T10:16:04.386Z,5.80
2023-01-10T10:18:58.719Z,5.90
2023-01-10T10:21:34.431Z,6.00
2023-01-10T10:24:42.844Z,6.00
2023-01-10T10:27:25.068Z,6.10
2023-01-10T10:30:12.477Z,6.20
2023-01-10T10:32:58.268Z,6.30
2023-01-10T10:35:43.454Z,6.30
2023-01-10T10:38:20.854Z,6.30
2023-01-10T10:40:50.341Z,6.30
2023-01-10T10:43:26.052Z,6.30
2023-01-10T10:46:02.820Z,6.40
2023-01-10T10:48:33.858Z,6.50
2023-01-10T10:51:21.823Z,6.50
2023-01-10T10:53:49.604Z,6.50
2023-01-10T10:56:19.864Z,6.60
2023-01-10T10:58:50.137Z,6.70
2023-01-10T11:01:19.527Z,6.80
2023-01-10T11:04:00.813Z,6.80
2023-01-10T11:06:32.647Z,6.70
2023-01-10T11:09:04.546Z,6.70
2023-01-10T11:11:44.419Z,6.80
2023-01-10T11:14:12.974Z,6.80
2023-01-10T11:16:43.774Z,6.80
2023-01-10T11:19:23.720Z,6.90
2023-01-10T11:22:02.885Z,6.90
2023-01-10T11:24:49.856Z,6.90
2023-01-10T11:27:22.985Z,6.90
2023-01-10T11:29:51.176Z,7.00
2023-01-10T11:32:24.720Z,7.10
2023-01-10T11:34:55.544Z,7.10
2023-01-10T11:37:34.067Z,7.10
2023-01-10T11:40:25.949Z,7.10
2023-01-10T11:42:59.130Z,7.00
2023-01-10T11:45:31.974Z,7.00
2023-01-10T11:48:02.746Z,7.10
2023-01-10T11:50:33.454Z,7.20
2023-01-10T11:53:00.909Z,7.30
2023-01-10T11:55:31.352Z,7.30
2023-01-10T11:58:12.866Z,7.30
2023-01-10T12:00:48.662Z,7.20
2023-01-10T12:03:37.689Z,7.30
2023-01-10T12:06:09.518Z,7.30
2023-01-10T12:08:38.963Z,7.30
2023-01-10T12:11:27.503Z,7.30
2023-01-10T12:13:58.018Z,7.50
2023-01-10T12:16:34.659Z,7.60
2023-01-10T12:19:04.703Z,7.60
2023-01-10T12:21:43.292Z,7.70
2023-01-10T12:24:16.625Z,7.70
2023-01-10T12:26:44.816Z,7.80
2023-01-10T12:29:34.886Z,7.90
2023-01-10T12:32:05.183Z,8.10
2023-01-10T12:34:42.596Z,8.20
2023-01-10T12:37:19.230Z,8.40
2023-01-10T12:39:59.853Z,8.60
2023-01-10T12:43:07.681Z,8.70
2023-01-10T12:45:56.847Z,8.80
2023-01-10T12:48:46.191Z,9.00
2023-01-10T12:51:19.012Z,9.00
2023-01-10T12:54:03.687Z,8.90
2023-01-10T12:56:31.359Z,8.70
2023-01-10T12:59:11.053Z,8.70
2023-01-10T13:01:42.380Z,8.70
2023-01-10T13:04:14.299Z,8.70
2023-01-10T13:06:44.175Z,8.50
2023-01-10T13:09:21.212Z,8.30
2023-01-10T13:12:09.259Z,8.10
2023-01-10T13:14:49.187Z,8.10
2023-01-10T13:17:25.065Z,8.00
2023-01-10T13:20:17.033Z,8.00
2023-01-10T13:22:47.220Z,7.90
2023-01-10T13:25:23.984Z,7.90
2023-01-10T13:28:02.114Z,7.80
2023-01-10T13:30:42.554Z,7.80
2023-01-10T13:33:28.161Z,7.70
2023-01-10T13:35:58.712Z,7.60
2023-01-10T13:38:44.834Z,7.60
2023-01-10T13:41:32.250Z,7.60
2023-01-10T13:44:02.517Z,7.60
2023-01-10T13:46:35.121Z,7.60
2023-01-10T13:49:03.533Z,7.70
2023-01-10T13:51:32.195Z,7.70
2023-01-10T13:54:03.764Z,7.60
2023-01-10T13:56:42.060Z,7.70
2023-01-10T13:59:51.050Z,7.60
2023-01-10T14:02:29.108Z,7.50
2023-01-10T14:05:07.221Z,7.50
2023-01-10T14:07:45.013Z,7.40
2023-01-10T14:10:32.971Z,7.40
2023-01-10T14:13:15.384Z,7.50
2023-01-10T14:15:45.980Z,7.50
2023-01-10T14:18:27.122Z,7.50
2023-01-10T14:21:23.890Z,7.50
2023-01-10T14:23:53.935Z,7.40
2023-01-10T14:26:38.911Z,7.30
2023-01-10T14:29:15.666Z,7.30
2023-01-10T14:31:48.081Z,7.30
2023-01-10T14:34:22.068Z,7.20
2023-01-10T14:37:01.126Z,7.20
2023-01-10T14:39:29.742Z,7.10
2023-01-10T14:42:02.718Z,7.00
2023-01-10T14:44:42.647Z,7.00
2023-01-10T14:47:29.891Z,6.80
2023-01-10T14:49:59.856Z,6.80
2023-01-10T14:52:28.170Z,6.70
2023-01-10T14:55:10.476Z,6.60
2023-01-10T14:57:38.208Z,6.60
2023-01-10T15:00:18.048Z,6.50
2023-01-10T15:02:47.692Z,6.50
2023-01-10T15:05:21.225Z,6.40
2023-01-10T15:07:48.548Z,6.40
2023-01-10T15:10:32.796Z,6.40
2023-01-10T15:13:03.128Z,6.30
2023-01-10T15:15:36.942Z,6.20
2023-01-10T15:18:18.373Z,6.30
2023-01-10T15:20:45.912Z,6.20
2023-01-10T15:23:15.560Z,6.10
2023-01-10T15:25:45.501Z,6.00
2023-01-10T15:28:17.249Z,6.00
2023-01-10T15:30:45.051Z,5.90
2023-01-10T15:33:24.387Z,5.80
2023-01-10T15:35:51.733Z,5.80
2023-01-10T15:38:24.203Z,5.80
2023-01-10T15:41:02.668Z,5.70
2023-01-10T15:43:32.422Z,5.60
2023-01-10T15:46:01.769Z,5.50
2023-01-10T15:48:32.716Z,5.50
2023-01-10T15:51:34.818Z,5.40
2023-01-10T15:54:20.227Z,5.30
2023-01-10T15:57:20.931Z,5.30
2023-01-10T15:59:51.124Z,5.30
2023-01-10T16:02:39.101Z,5.30
2023-01-10T16:05:12.323Z,5.20
2023-01-10T16:07:45.301Z,5.20
2023-01-10T16:10:23.796Z,5.10
2023-01-10T16:13:09.663Z,5.00
2023-01-10T16:15:40.648Z,5.10
2023-01-10T16:18:08.150Z,5.00
2023-01-10T16:20:41.563Z,5.00
2023-01-10T16:23:16.019Z,5.00
2023-01-10T16:25:55.739Z,4.90
2023-01-10T16:28:24.159Z,4.80
2023-01-10T16:30:51.627Z,4.80
2023-01-10T16:33:23.459Z,4.70
2023-01-10T16:35:53.244Z,4.80
2023-01-10T16:38:21.326Z,4.70
2023-01-10T16:41:00.188Z,4.70
2023-01-10T16:43:29.434Z,4.70
2023-01-10T16:46:00.184Z,4.70
2023-01-10T16:48:30.187Z,4.60
2023-01-10T16:51:13.708Z,4.60
2023-01-10T16:53:41.814Z,4.50
2023-01-10T16:56:13.570Z,4.60
2023-01-10T16:58:40.697Z,4.50
2023-01-10T17:01:14.541Z,4.60
2023-01-10T17:03:41.666Z,4.70
2023-01-10T17:06:11.031Z,4.70
2023-01-10T17:08:38.362Z,4.70
2023-01-10T17:11:08.604Z,4.60
2023-01-10T17:13:40.363Z,4.60
2023-01-10T17:16:07.953Z,4.60
2023-01-10T17:18:35.761Z,4.60
2023-01-10T17:21:04.413Z,4.60
2023-01-10T17:23:32.150Z,4.60
2023-01-10T17:26:05.177Z,4.60
2023-01-10T17:28:32.415Z,4.60
2023-01-10T17:31:03.169Z,4.60
2023-01-10T17:33:37.048Z,4.60
2023-01-10T17:36:04.794Z,4.50
2023-01-10T17:38:32.715Z,4.50
2023-01-10T17:41:03.733Z,4.40
2023-01-10T17:43:31.882Z,4.50
2023-01-10T17:45:59.205Z,4.40
2023-01-10T17:48:27.090Z,4.40
2023-01-10T17:51:01.539Z,4.40
2023-01-10T17:53:29.537Z,4.40
2023-01-10T17:55:58.436Z,4.40
2023-01-10T17:58:26.225Z,4.40
2023-01-10T18:00:53.399Z,4.40
2023-01-10T18:03:20.705Z,4.40
2023-01-10T18:05:53.022Z,4.50
2023-01-10T18:08:20.713Z,4.60
2023-01-10T18:10:48.158Z,4.60
2023-01-10T18:13:17.196Z,4.50
2023-01-10T18:15:47.289Z,4.60
2023-01-10T18:18:14.743Z,4.60
2023-01-10T18:20:43.035Z,4.60
2023-01-10T18:23:23.744Z,4.60
2023-01-10T18:26:02.503Z,4.60
2023-01-10T18:28:40.457Z,4.60
2023-01-10T18:31:16.737Z,4.60
2023-01-10T18:33:45.019Z,4.60
2023-01-10T18:36:15.225Z,4.50
2023-01-10T18:38:43.385Z,4.50
2023-01-10T18:41:11.117Z,4.60
2023-01-10T18:43:39.068Z,4.60
2023-01-10T18:46:19.549Z,4.50
2023-01-10T18:48:47.409Z,4.50
2023-01-10T18:51:14.926Z,4.50
2023-01-10T18:53:43.084Z,4.50
2023-01-10T18:56:11.732Z,4.60
2023-01-10T18:58:40.997Z,4.60
2023-01-10T19:01:14.328Z,4.60
2023-01-10T19:03:42.313Z,4.70
2023-01-10T19:06:11.874Z,4.70
2023-01-10T19:08:39.516Z,4.70
2023-01-10T19:11:13.994Z,4.70
2023-01-10T19:13:42.907Z,4.80
2023-01-10T19:16:15.193Z,4.80
2023-01-10T19:18:43.901Z,4.80
2023-01-10T19:21:17.081Z,4.90
2023-01-10T19:23:49.447Z,4.90
2023-01-10T19:26:17.285Z,4.90
2023-01-10T19:28:45.313Z,4.80
2023-01-10T19:31:20.401Z,4.80
2023-01-10T19:33:48.376Z,4.80
2023-01-10T19:36:16.435Z,4.80
2023-01-10T19:38:46.366Z,4.90
2023-01-10T19:41:14.488Z,4.90
2023-01-10T19:43:42.059Z,5.00
2023-01-10T19:46:11.392Z,5.00
2023-01-10T19:48:38.932Z,4.90
2023-01-10T19:51:11.276Z,4.90
2023-01-10T19:53:42.322Z,4.90
2023-01-10T19:56:10.567Z,4.90
2023-01-10T19:58:39.129Z,4.90
2023-01-10T20:01:11.944Z,5.10
2023-01-10T20:03:41.027Z,5.00
2023-01-10T20:06:10.929Z,4.90
2023-01-10T20:08:38.509Z,4.90
2023-01-10T20:11:07.377Z,4.90
2023-01-10T20:13:38.865Z,4.90
2023-01-10T20:16:07.133Z,4.90
2023-01-10T20:18:34.252Z,5.00
2023-01-10T20:21:08.650Z,5.10
2023-01-10T20:23:37.000Z,5.10
2023-01-10T20:26:07.245Z,5.20
2023-01-10T20:28:34.922Z,5.20
2023-01-10T20:31:02.711Z,5.20
2023-01-10T20:33:32.919Z,5.20
2023-01-10T20:36:08.575Z,5.30
2023-01-10T20:38:37.193Z,5.20
2023-01-10T20:41:11.252Z,5.10
2023-01-10T20:43:38.965Z,5.10
2023-01-10T20:46:11.976Z,5.10
2023-01-10T20:48:40.775Z,5.10
2023-01-10T20:51:11.300Z,5.10
2023-01-10T20:53:38.606Z,5.10
2023-01-10T20:56:08.723Z,5.10
2023-01-10T20:58:36.393Z,5.10
2023-01-10T21:01:03.939Z,5.00
2023-01-10T21:03:31.175Z,5.00
2023-01-10T21:05:59.635Z,5.00
2023-01-10T21:08:27.077Z,5.00
2023-01-10T21:10:54.623Z,5.00
2023-01-10T21:13:22.605Z,5.10
2023-01-10T21:15:55.159Z,5.00
2023-01-10T21:18:24.768Z,5.00
2023-01-10T21:20:54.772Z,5.10
2023-01-10T21:23:24.078Z,5.10
2023-01-10T21:25:52.677Z,5.10
2023-01-10T21:28:20.618Z,5.10
2023-01-10T21:30:48.374Z,5.10
2023-01-10T21:33:15.546Z,5.10
2023-01-10T21:35:50.781Z,5.10
2023-01-10T21:38:17.818Z,5.20
2023-01-10T21:40:44.934Z,5.20
2023-01-10T21:43:12.090Z,5.20
2023-01-10T21:45:39.197Z,5.20
2023-01-10T21:48:06.299Z,5.30
2023-01-10T21:50:33.802Z,5.30
2023-01-10T21:53:01.365Z,5.30
2023-01-10T21:55:29.050Z,5.40
2023-01-10T21:57:56.451Z,5.50
2023-01-10T22:00:23.629Z,5.60
2023-01-10T22:02:50.809Z,5.50
2023-01-10T22:05:17.968Z,5.50
2023-01-10T22:07:46.033Z,5.60
2023-01-10T22:10:13.081Z,5.60
2023-01-10T22:12:40.256Z,5.70
2023-01-10T22:15:07.989Z,5.70
2023-01-10T22:17:35.041Z,5.70
2023-01-10T22:20:02.200Z,5.70
2023-01-10T22:22:29.335Z,5.80
2023-01-10T22:24:56.471Z,5.80
2023-01-10T22:27:23.608Z,5.90
2023-01-10T22:29:50.671Z,5.90
2023-01-10T22:32:18.026Z,5.90
2023-01-10T22:34:45.269Z,6.00
2023-01-10T22:37:13.010Z,6.00
2023-01-10T22:39:40.100Z,6.10
2023-01-10T22:42:07.238Z,6.00
2023-01-10T22:44:34.354Z,6.10
2023-01-10T22:47:01.648Z,6.20
2023-01-10T22:49:29.030Z,6.20
2023-01-10T22:51:56.169Z,6.20
2023-01-10T22:54:23.619Z,6.20
2023-01-10T22:56:51.045Z,6.30
2023-01-10T22:59:18.547Z,6.40
2023-01-10T23:01:46.440Z,6.40
2023-01-10T23:04:13.663Z,6.40
2023-01-10T23:06:40.780Z,6.50
2023-01-10T23:09:08.637Z,6.50
2023-01-10T23:11:35.749Z,6.60
2023-01-10T23:14:03.094Z,6.60
2023-01-10T23:16:30.361Z,6.70
2023-01-10T23:18:58.144Z,6.70
2023-01-10T23:21:26.154Z,6.80
2023-01-10T23:23:54.486Z,6.80
2023-01-10T23:26:21.744Z,6.80
2023-01-10T23:28:50.727Z,6.80
2023-01-10T23:31:29.492Z,6.80
2023-01-10T23:33:57.059Z,6.80
2023-01-10T23:36:24.960Z,6.90
2023-01-10T23:38:52.102Z,6.90
2023-01-10T23:41:21.249Z,7.00
2023-01-10T23:43:50.822Z,6.90
2023-01-10T23:46:18.259Z,7.00
2023-01-10T23:48:46.504Z,7.10
2023-01-10T23:51:14.138Z,7.00
2023-01-10T23:53:41.870Z,7.00
2023-01-10T23:56:10.966Z,7.00
2023-01-10T23:58:38.700Z,7.00
